createdAt,value
2019-02-23T00:00:51.707Z,3.90
2019-02-23T00:03:21.427Z,4.10
2019-02-23T00:05:50.799Z,3.50
2019-02-23T00:08:20.848Z,4.20
2019-02-23T00:10:50.810Z,4.17
2019-02-23T00:13:20.553Z,3.80
2019-02-23T00:15:50.487Z,3.73
2019-02-23T00:18:20.239Z,3.90
2019-02-23T00:20:49.515Z,3.80
2019-02-23T00:23:19.503Z,3.80
2019-02-23T00:25:48.745Z,4.20
2019-02-23T00:28:18.350Z,3.00
2019-02-23T00:30:47.598Z,3.43
2019-02-23T00:33:17.363Z,3.60
2019-02-23T00:35:46.551Z,3.23
2019-02-23T00:38:16.880Z,3.53
2019-02-23T00:40:46.218Z,3.70
2019-02-23T00:43:15.848Z,3.30
2019-02-23T00:45:45.772Z,3.37
2019-02-23T00:48:16.179Z,3.47
2019-02-23T00:50:46.155Z,3.60
2019-02-23T00:53:16.722Z,2.90
2019-02-23T00:55:46.380Z,3.87
2019-02-23T00:58:16.801Z,2.90
2019-02-23T01:00:46.167Z,3.23
2019-02-23T01:03:15.506Z,3.50
2019-02-23T01:05:44.687Z,3.30
2019-02-23T01:08:14.093Z,3.47
2019-02-23T01:10:43.443Z,3.10
2019-02-23T01:13:13.369Z,3.70
2019-02-23T01:15:42.998Z,3.40
2019-02-23T01:18:12.810Z,4.30
2019-02-23T01:20:42.823Z,3.60
2019-02-23T01:23:12.746Z,4.43
2019-02-23T01:25:42.298Z,4.67
2019-02-23T01:28:12.239Z,4.30
2019-02-23T01:30:42.119Z,4.70
2019-02-23T01:33:11.350Z,4.40
2019-02-23T01:35:40.967Z,4.47
2019-02-23T01:38:10.935Z,4.73
2019-02-23T01:40:40.242Z,4.43
2019-02-23T01:43:09.923Z,5.23
2019-02-23T01:45:42.391Z,4.40
2019-02-23T01:48:10.822Z,4.60
2019-02-23T01:50:40.033Z,4.90
2019-02-23T01:53:09.658Z,5.50
2019-02-23T01:55:39.166Z,5.00
2019-02-23T01:58:08.927Z,5.80
2019-02-23T02:00:39.152Z,5.30
2019-02-23T02:03:08.361Z,5.33
2019-02-23T02:05:37.584Z,6.00
2019-02-23T02:08:07.309Z,5.40
2019-02-23T02:10:36.982Z,5.00
2019-02-23T02:13:06.592Z,5.43
2019-02-23T02:15:36.722Z,6.00
2019-02-23T02:18:06.366Z,5.93
2019-02-23T02:20:36.002Z,5.73
2019-02-23T02:23:05.362Z,5.70
2019-02-23T02:25:34.965Z,5.50
2019-02-23T02:28:04.658Z,6.80
2019-02-23T02:30:34.031Z,5.53
2019-02-23T02:33:03.643Z,5.80
2019-02-23T02:35:32.854Z,4.97
2019-02-23T02:38:02.540Z,5.00
2019-02-23T02:40:32.527Z,6.40
2019-02-23T02:43:02.441Z,6.07
2019-02-23T02:45:50.969Z,5.53
2019-02-23T02:48:20.549Z,5.57
2019-02-23T02:50:49.942Z,5.80
2019-02-23T02:53:19.569Z,5.57
2019-02-23T02:55:49.429Z,7.13
2019-02-23T02:58:19.080Z,6.20
2019-02-23T03:00:48.781Z,6.00
2019-02-23T03:03:18.361Z,6.07
2019-02-23T03:05:47.593Z,6.73
2019-02-23T03:08:17.257Z,5.87
2019-02-23T03:10:46.908Z,6.03
2019-02-23T03:13:16.506Z,6.67
2019-02-23T03:15:45.749Z,5.93
2019-02-23T03:18:15.334Z,5.90
2019-02-23T03:20:44.741Z,5.57
2019-02-23T03:23:14.084Z,6.27
2019-02-23T03:25:43.803Z,6.40
2019-02-23T03:28:13.186Z,6.13
2019-02-23T03:30:42.826Z,4.97
2019-02-23T03:33:12.965Z,6.67
2019-02-23T03:35:42.609Z,5.70
2019-02-23T03:38:12.662Z,5.97
2019-02-23T03:40:41.926Z,6.53
2019-02-23T03:43:11.469Z,5.40
2019-02-23T03:45:41.029Z,6.07
2019-02-23T03:48:11.347Z,6.33
2019-02-23T03:50:49.206Z,5.20
2019-02-23T03:53:12.696Z,6.10
2019-02-23T03:55:42.348Z,6.70
2019-02-23T03:58:12.079Z,5.50
2019-02-23T04:00:41.298Z,6.10
2019-02-23T04:03:11.105Z,6.33
2019-02-23T04:05:40.896Z,6.63
2019-02-23T04:08:29.732Z,6.27
2019-02-23T04:10:59.374Z,5.90
2019-02-23T04:13:29.479Z,6.10
2019-02-23T04:15:59.451Z,5.47
2019-02-23T04:18:28.684Z,6.20
2019-02-23T04:21:02.075Z,6.63
2019-02-23T04:23:30.726Z,6.40
2019-02-23T04:26:00.803Z,7.80
2019-02-23T04:28:49.197Z,6.10
2019-02-23T04:31:18.581Z,6.50
2019-02-23T04:33:48.582Z,5.70
2019-02-23T04:36:18.123Z,5.80
2019-02-23T04:38:48.341Z,7.07
2019-02-23T04:41:18.350Z,5.80
2019-02-23T04:44:06.850Z,6.60
2019-02-23T04:46:36.637Z,6.30
2019-02-23T04:49:06.016Z,7.00
2019-02-23T04:51:35.928Z,6.90
2019-02-23T04:54:05.535Z,6.53
2019-02-23T04:56:35.544Z,6.47
2019-02-23T04:59:04.787Z,7.43
2019-02-23T05:01:34.788Z,6.97
2019-02-23T05:04:05.094Z,6.60
2019-02-23T05:06:34.372Z,6.20
2019-02-23T05:09:04.834Z,6.33
2019-02-23T05:11:34.453Z,6.57
2019-02-23T05:14:22.814Z,6.70
2019-02-23T05:16:52.718Z,6.30
2019-02-23T05:19:22.123Z,5.50
2019-02-23T05:21:52.156Z,6.00
2019-02-23T05:24:21.898Z,6.53
2019-02-23T05:26:51.459Z,5.90
2019-02-23T05:29:21.503Z,6.00
2019-02-23T05:31:51.042Z,7.37
2019-02-23T05:34:40.472Z,7.00
2019-02-23T05:37:10.095Z,6.80
2019-02-23T05:39:40.452Z,5.63
2019-02-23T05:42:09.684Z,5.80
2019-02-23T05:44:39.370Z,5.33
2019-02-23T05:47:08.933Z,6.27
2019-02-23T05:49:38.509Z,5.80
2019-02-23T05:52:08.626Z,6.07
2019-02-23T05:54:38.665Z,5.87
2019-02-23T05:57:08.513Z,5.67
2019-02-23T05:59:56.897Z,5.30
2019-02-23T06:02:35.141Z,6.10
2019-02-23T06:05:04.756Z,4.80
2019-02-23T06:07:34.105Z,5.80
2019-02-23T06:10:03.674Z,5.97
2019-02-23T06:12:33.352Z,5.93
2019-02-23T06:15:02.886Z,5.87
2019-02-23T06:17:32.481Z,5.50
2019-02-23T06:20:02.964Z,6.20
2019-02-23T06:22:32.754Z,5.50
2019-02-23T06:25:02.440Z,5.30
2019-02-23T06:27:51.193Z,5.90
2019-02-23T06:30:20.610Z,5.40
2019-02-23T06:32:50.151Z,5.90
2019-02-23T06:35:19.715Z,5.90
2019-02-23T06:37:49.651Z,5.23
2019-02-23T06:40:19.350Z,5.77
2019-02-23T06:42:49.029Z,6.17
2019-02-23T06:45:18.273Z,5.20
2019-02-23T06:47:47.935Z,5.57
2019-02-23T06:50:17.968Z,6.27
2019-02-23T06:53:06.714Z,5.83
2019-02-23T06:55:36.316Z,5.23
2019-02-23T06:58:24.724Z,5.23
2019-02-23T07:00:54.217Z,5.43
2019-02-23T07:03:23.780Z,5.13
2019-02-23T07:05:53.386Z,5.80
2019-02-23T07:08:23.021Z,6.13
2019-02-23T07:10:53.059Z,5.93
2019-02-23T07:13:23.047Z,5.60
2019-02-23T07:15:53.149Z,6.40
2019-02-23T07:18:22.812Z,6.70
2019-02-23T07:20:53.006Z,5.87
2019-02-23T07:23:22.976Z,6.50
2019-02-23T07:25:53.282Z,6.50
2019-02-23T07:28:22.857Z,7.60
2019-02-23T07:30:52.620Z,7.00
2019-02-23T07:33:32.350Z,7.23
2019-02-23T07:35:53.402Z,6.70
2019-02-23T07:38:23.609Z,5.83
2019-02-23T07:40:53.580Z,7.00
2019-02-23T07:43:23.001Z,7.10
2019-02-23T07:45:52.378Z,6.10
2019-02-23T07:48:22.474Z,6.67
2019-02-23T07:50:52.721Z,7.27
2019-02-23T07:53:22.807Z,6.30
2019-02-23T07:55:52.169Z,6.73
2019-02-23T07:58:21.755Z,7.80
2019-02-23T08:00:51.139Z,6.60
2019-02-23T08:03:21.423Z,6.50
2019-02-23T08:05:50.798Z,6.80
2019-02-23T08:08:19.987Z,6.37
2019-02-23T08:10:50.008Z,6.23
2019-02-23T08:13:19.338Z,7.83
2019-02-23T08:15:48.904Z,6.30
2019-02-23T08:18:18.513Z,6.43
2019-02-23T08:20:48.599Z,5.97
2019-02-23T08:23:18.326Z,5.50
2019-02-23T08:25:47.773Z,6.63
2019-02-23T08:28:17.462Z,6.70
2019-02-23T08:30:47.063Z,5.13
2019-02-23T08:33:16.690Z,6.20
2019-02-23T08:35:47.096Z,6.33
2019-02-23T08:38:17.353Z,5.60
2019-02-23T08:40:47.290Z,6.23
2019-02-23T08:43:17.455Z,5.97
2019-02-23T08:45:47.862Z,6.57
2019-02-23T08:48:17.091Z,6.60
2019-02-23T08:50:46.874Z,6.90
2019-02-23T08:53:16.558Z,5.60
2019-02-23T08:55:46.167Z,5.70
2019-02-23T08:58:16.013Z,5.47
2019-02-23T09:00:45.681Z,5.83
2019-02-23T09:03:15.713Z,5.40
2019-02-23T09:05:45.355Z,5.83
2019-02-23T09:08:14.753Z,5.23
2019-02-23T09:10:44.470Z,5.90
2019-02-23T09:13:14.202Z,6.00
2019-02-23T09:15:44.177Z,6.07
2019-02-23T09:18:13.370Z,5.83
2019-02-23T09:20:42.622Z,5.10
2019-02-23T09:23:12.011Z,6.67
2019-02-23T09:25:42.299Z,5.70
2019-02-23T09:28:12.240Z,5.30
2019-02-23T09:30:41.808Z,6.10
2019-02-23T09:33:11.716Z,4.93
2019-02-23T09:35:41.294Z,5.83
2019-02-23T09:38:10.567Z,5.20
2019-02-23T09:40:40.105Z,5.40
2019-02-23T09:43:09.659Z,5.80
2019-02-23T09:45:38.924Z,5.23
2019-02-23T09:48:08.148Z,5.53
2019-02-23T09:50:38.266Z,5.67
2019-02-23T09:53:11.362Z,6.60
2019-02-23T09:55:39.638Z,5.23
2019-02-23T09:58:09.301Z,5.80
2019-02-23T10:00:38.916Z,6.07
2019-02-23T10:03:08.566Z,6.50
2019-02-23T10:05:38.349Z,5.90
2019-02-23T10:08:08.214Z,5.47
2019-02-23T10:10:38.199Z,5.87
2019-02-23T10:13:08.633Z,6.40
2019-02-23T10:15:38.000Z,6.37
2019-02-23T10:18:07.614Z,5.70
2019-02-23T10:20:37.514Z,5.87
2019-02-23T10:23:07.175Z,5.67
2019-02-23T10:25:36.565Z,6.07
2019-02-23T10:28:05.839Z,5.90
2019-02-23T10:30:35.275Z,6.03
2019-02-23T10:33:04.525Z,6.00
2019-02-23T10:35:34.433Z,5.70
2019-02-23T10:38:03.630Z,5.80
2019-02-23T10:40:33.292Z,5.37
2019-02-23T10:43:03.099Z,5.70
2019-02-23T10:45:32.755Z,5.63
2019-02-23T10:48:21.291Z,6.10
2019-02-23T10:50:50.838Z,5.30
2019-02-23T10:53:20.085Z,5.60
2019-02-23T10:55:49.623Z,5.70
2019-02-23T10:58:19.341Z,5.60
2019-02-23T11:00:48.984Z,5.90
2019-02-23T11:03:18.895Z,5.83
2019-02-23T11:05:48.670Z,5.70
2019-02-23T11:08:18.722Z,5.50
2019-02-23T11:10:48.076Z,5.87
2019-02-23T11:13:17.770Z,5.93
2019-02-23T11:15:47.314Z,5.87
2019-02-23T11:18:16.893Z,6.20
2019-02-23T11:20:46.271Z,6.40
2019-02-23T11:23:15.879Z,6.13
2019-02-23T11:25:45.542Z,5.73
2019-02-23T11:28:14.781Z,5.80
2019-02-23T11:30:44.373Z,5.57
2019-02-23T11:33:14.046Z,6.43
2019-02-23T11:35:43.630Z,6.77
2019-02-23T11:38:13.608Z,6.30
2019-02-23T11:40:43.234Z,6.77
2019-02-23T11:43:12.866Z,6.53
2019-02-23T11:45:42.778Z,6.60
2019-02-23T11:48:12.336Z,6.40
2019-02-23T11:50:41.866Z,6.50
2019-02-23T11:53:11.090Z,5.93
2019-02-23T11:55:40.680Z,5.43
2019-02-23T11:58:09.872Z,5.93
2019-02-23T12:00:39.099Z,6.20
2019-02-23T12:03:08.842Z,5.57
2019-02-23T12:05:38.495Z,6.30
2019-02-23T12:08:08.910Z,4.73
2019-02-23T12:10:38.218Z,4.93
2019-02-23T12:13:08.548Z,5.47
2019-02-23T12:15:38.222Z,5.50
2019-02-23T12:18:07.930Z,4.60
2019-02-23T12:20:38.326Z,5.83
2019-02-23T12:23:07.538Z,5.23
2019-02-23T12:25:37.151Z,6.03
2019-02-23T12:28:06.718Z,6.27
2019-02-23T12:30:36.320Z,5.07
2019-02-23T12:33:05.590Z,5.50
2019-02-23T12:35:35.177Z,5.77
2019-02-23T12:38:04.462Z,5.40
2019-02-23T12:40:34.547Z,5.07
2019-02-23T12:43:04.055Z,4.93
2019-02-23T12:45:33.626Z,4.73
2019-02-23T12:48:03.023Z,5.80
2019-02-23T12:50:33.445Z,5.43
2019-02-23T12:53:03.569Z,5.43
2019-02-23T12:55:32.753Z,5.67
2019-02-23T12:58:02.396Z,5.00
2019-02-23T13:00:31.655Z,5.50
2019-02-23T13:03:00.883Z,4.87
2019-02-23T13:05:30.116Z,5.03
2019-02-23T13:07:59.668Z,5.57
2019-02-23T13:10:29.027Z,5.03
2019-02-23T13:13:28.232Z,5.60
2019-02-23T13:16:11.620Z,4.40
2019-02-23T13:19:17.399Z,4.10
2019-02-23T13:22:54.962Z,3.87
2019-02-23T13:25:54.603Z,4.17
2019-02-23T13:28:43.136Z,4.00
2019-02-23T13:31:58.788Z,4.30
2019-02-23T13:35:15.332Z,4.40
2019-02-23T13:38:07.630Z,4.47
2019-02-23T13:40:54.813Z,4.23
2019-02-23T13:44:07.610Z,4.17
2019-02-23T13:46:55.344Z,3.60
2019-02-23T13:50:33.789Z,4.00
2019-02-23T13:53:52.621Z,2.97
2019-02-23T13:56:56.715Z,3.70
2019-02-23T14:00:22.642Z,2.80
2019-02-23T14:03:29.434Z,2.90
2019-02-23T14:06:49.426Z,2.80
2019-02-23T14:10:08.465Z,2.30
2019-02-23T14:13:15.890Z,2.47
2019-02-23T14:16:29.008Z,3.23
2019-02-23T14:19:10.758Z,2.70
2019-02-23T14:21:58.135Z,2.40
2019-02-23T14:25:15.347Z,2.50
2019-02-23T14:28:12.129Z,2.60
2019-02-23T14:31:31.850Z,3.43
2019-02-23T14:34:37.688Z,2.87
2019-02-23T14:37:48.530Z,3.50
2019-02-23T14:41:07.247Z,2.80
2019-02-23T14:44:24.365Z,3.27
2019-02-23T14:47:09.547Z,2.77
2019-02-23T14:50:14.238Z,3.10
2019-02-23T14:53:30.953Z,3.30
2019-02-23T14:56:39.033Z,2.97
2019-02-23T14:59:50.995Z,3.37
2019-02-23T15:02:57.521Z,2.83
2019-02-23T15:06:04.451Z,3.80
2019-02-23T15:09:20.850Z,3.63
2019-02-23T15:12:37.620Z,4.10
2019-02-23T15:15:39.468Z,4.47
2019-02-23T15:18:30.375Z,4.33
2019-02-23T15:21:30.326Z,4.50
2019-02-23T15:24:53.030Z,4.73
2019-02-23T15:27:57.348Z,4.50
2019-02-23T15:31:01.682Z,5.23
2019-02-23T15:34:03.946Z,5.20
2019-02-23T15:37:00.530Z,4.83
2019-02-23T15:39:58.474Z,5.37
2019-02-23T15:42:50.348Z,4.93
2019-02-23T15:45:48.801Z,4.70
2019-02-23T15:48:56.645Z,4.33
2019-02-23T15:51:26.694Z,4.70
2019-02-23T15:53:56.286Z,4.80
2019-02-23T15:56:29.160Z,4.50
2019-02-23T15:58:59.171Z,4.33
2019-02-23T16:01:28.952Z,4.90
2019-02-23T16:03:58.717Z,4.80
2019-02-23T16:06:27.987Z,5.10
2019-02-23T16:08:57.420Z,4.43
2019-02-23T16:11:27.562Z,4.83
2019-02-23T16:13:57.596Z,4.40
2019-02-23T16:16:27.647Z,4.87
2019-02-23T16:18:57.301Z,4.10
2019-02-23T16:21:26.639Z,4.70
2019-02-23T16:23:56.726Z,4.77
2019-02-23T16:26:26.237Z,4.67
2019-02-23T16:28:55.893Z,4.07
2019-02-23T16:31:25.431Z,3.67
2019-02-23T16:33:56.010Z,4.17
2019-02-23T16:36:25.639Z,4.30
2019-02-23T16:38:54.964Z,4.03
2019-02-23T16:41:24.463Z,3.67
2019-02-23T16:43:54.048Z,5.53
2019-02-23T16:46:23.261Z,5.17
2019-02-23T16:48:53.511Z,5.40
2019-02-23T16:51:22.969Z,5.13
2019-02-23T16:53:52.928Z,5.10
2019-02-23T16:56:23.065Z,5.60
2019-02-23T16:58:52.909Z,5.20
2019-02-23T17:01:24.066Z,5.00
2019-02-23T17:03:54.298Z,4.80
2019-02-23T17:06:42.864Z,5.03
2019-02-23T17:09:12.949Z,5.43
2019-02-23T17:11:42.398Z,5.20
2019-02-23T17:14:11.668Z,5.43
2019-02-23T17:16:41.248Z,6.10
2019-02-23T17:19:11.749Z,5.03
2019-02-23T17:21:41.381Z,5.37
2019-02-23T17:24:11.011Z,5.07
2019-02-23T17:26:59.383Z,5.30
2019-02-23T17:29:29.468Z,5.90
2019-02-23T17:31:59.096Z,5.03
2019-02-23T17:34:29.088Z,5.20
2019-02-23T17:36:58.503Z,5.87
2019-02-23T17:39:28.330Z,5.50
2019-02-23T17:41:58.904Z,6.00
2019-02-23T17:44:28.458Z,5.73
2019-02-23T17:46:58.149Z,6.07
2019-02-23T17:49:27.812Z,5.80
2019-02-23T17:51:57.078Z,6.57
2019-02-23T17:54:26.674Z,6.40
2019-02-23T17:56:56.307Z,6.53
2019-02-23T17:59:26.039Z,6.60
2019-02-23T18:01:55.765Z,6.70
2019-02-23T18:04:25.302Z,6.40
2019-02-23T18:06:54.810Z,5.77
2019-02-23T18:09:24.812Z,6.87
2019-02-23T18:11:54.491Z,6.43
2019-02-23T18:14:24.585Z,6.30
2019-02-23T18:16:55.100Z,5.87
2019-02-23T18:19:24.566Z,6.77
2019-02-23T18:21:54.880Z,5.97
2019-02-23T18:24:24.681Z,5.43
2019-02-23T18:26:54.738Z,6.00
2019-02-23T18:29:24.662Z,5.10
2019-02-23T18:31:53.878Z,5.57
2019-02-23T18:34:23.632Z,5.77
2019-02-23T18:36:54.081Z,5.23
2019-02-23T18:39:24.578Z,5.87
2019-02-23T18:41:54.288Z,4.50
2019-02-23T18:44:23.993Z,6.20
2019-02-23T18:46:53.397Z,4.53
2019-02-23T18:49:22.677Z,5.43
2019-02-23T18:51:52.903Z,5.63
2019-02-23T18:54:22.521Z,5.33
2019-02-23T18:56:52.430Z,5.47
2019-02-23T18:59:21.777Z,5.30
2019-02-23T19:01:52.808Z,5.17
2019-02-23T19:04:22.509Z,5.67
2019-02-23T19:06:51.769Z,6.07
2019-02-23T19:09:22.048Z,5.70
2019-02-23T19:11:54.733Z,5.50
2019-02-23T19:14:24.297Z,5.80
2019-02-23T19:16:53.792Z,4.80
2019-02-23T19:19:23.414Z,5.40
2019-02-23T19:21:53.011Z,5.13
2019-02-23T19:24:23.088Z,5.10
2019-02-23T19:26:52.773Z,5.53
2019-02-23T19:29:22.492Z,5.60
2019-02-23T19:31:52.247Z,5.70
2019-02-23T19:34:22.364Z,5.43
2019-02-23T19:36:51.750Z,5.10
2019-02-23T19:39:22.102Z,5.07
2019-02-23T19:41:51.838Z,4.50
2019-02-23T19:44:21.607Z,5.10
2019-02-23T19:46:57.021Z,5.43
2019-02-23T19:49:27.255Z,6.10
2019-02-23T19:51:57.547Z,6.27
2019-02-23T19:54:27.609Z,5.10
2019-02-23T19:57:16.118Z,6.20
2019-02-23T19:59:45.874Z,6.80
2019-02-23T20:02:15.816Z,4.23
2019-02-23T20:04:45.138Z,5.03
2019-02-23T20:07:15.149Z,5.33
2019-02-23T20:09:44.720Z,5.03
2019-02-23T20:12:14.386Z,5.20
2019-02-23T20:14:44.520Z,4.20
2019-02-23T20:17:14.126Z,4.30
2019-02-23T20:19:43.755Z,4.17
2019-02-23T20:22:14.182Z,4.57
2019-02-23T20:24:44.254Z,3.73
2019-02-23T20:27:13.585Z,4.37
2019-02-23T20:29:42.979Z,4.60
2019-02-23T20:32:13.458Z,4.90
2019-02-23T20:34:42.753Z,4.73
2019-02-23T20:37:12.902Z,5.30
2019-02-23T20:39:42.161Z,4.77
2019-02-23T20:42:12.297Z,4.83
2019-02-23T20:44:41.912Z,4.53
2019-02-23T20:47:12.112Z,5.27
2019-02-23T20:49:41.723Z,4.40
2019-02-23T20:52:12.210Z,5.10
2019-02-23T20:54:43.790Z,3.83
2019-02-23T20:57:14.309Z,4.23
2019-02-23T20:59:43.889Z,5.00
2019-02-23T21:02:13.607Z,4.33
2019-02-23T21:04:43.695Z,4.70
2019-02-23T21:07:12.994Z,4.27
2019-02-23T21:09:43.197Z,4.40
2019-02-23T21:12:13.443Z,4.60
2019-02-23T21:14:43.654Z,4.27
2019-02-23T21:17:13.740Z,4.40
2019-02-23T21:19:43.030Z,5.27
2019-02-23T21:22:31.643Z,6.07
2019-02-23T21:25:00.976Z,5.60
2019-02-23T21:27:30.740Z,4.13
2019-02-23T21:30:00.322Z,4.50
2019-02-23T21:32:29.553Z,5.03
2019-02-23T21:34:58.984Z,5.30
2019-02-23T21:37:29.454Z,4.23
2019-02-23T21:39:59.185Z,4.70
2019-02-23T21:42:47.891Z,5.33
2019-02-23T21:45:18.555Z,5.30
2019-02-23T21:47:48.279Z,5.30
2019-02-23T21:50:17.943Z,5.80
2019-02-23T21:52:47.595Z,5.87
2019-02-23T21:55:17.324Z,6.73
2019-02-23T21:57:46.559Z,6.30
2019-02-23T22:00:16.433Z,6.07
2019-02-23T22:02:45.881Z,5.87
2019-02-23T22:05:15.240Z,6.00
2019-02-23T22:07:45.673Z,6.13
2019-02-23T22:10:15.566Z,5.60
2019-02-23T22:12:45.511Z,6.03
2019-02-23T22:15:15.126Z,5.70
2019-02-23T22:17:45.515Z,6.27
2019-02-23T22:20:15.038Z,6.90
2019-02-23T22:22:44.765Z,7.10
2019-02-23T22:25:14.756Z,7.33
2019-02-23T22:27:44.366Z,6.97
2019-02-23T22:30:13.976Z,6.40
2019-02-23T22:32:43.225Z,6.60
2019-02-23T22:35:32.296Z,6.70
2019-02-23T22:38:02.782Z,7.40
2019-02-23T22:40:32.798Z,7.20
2019-02-23T22:43:02.546Z,7.17
2019-02-23T22:45:32.184Z,7.73
2019-02-23T22:48:01.806Z,8.00
2019-02-23T22:50:31.833Z,7.77
2019-02-23T22:53:01.497Z,7.43
2019-02-23T22:55:31.454Z,7.47
2019-02-23T22:58:00.804Z,8.00
2019-02-23T23:00:40.935Z,8.23
2019-02-23T23:03:10.546Z,8.10
2019-02-23T23:05:39.757Z,7.70
2019-02-23T23:08:09.408Z,7.50
2019-02-23T23:10:39.348Z,7.50
2019-02-23T23:13:08.594Z,9.23
2019-02-23T23:15:37.905Z,9.30
2019-02-23T23:18:07.109Z,8.53
2019-02-23T23:20:55.651Z,9.23
2019-02-23T23:23:24.911Z,9.07
2019-02-23T23:25:54.146Z,8.17
2019-02-23T23:28:23.775Z,7.87
2019-02-23T23:30:53.303Z,9.60
2019-02-23T23:33:23.066Z,8.27
2019-02-23T23:35:53.252Z,8.43
2019-02-23T23:38:22.947Z,8.30
2019-02-23T23:40:52.943Z,8.33
2019-02-23T23:43:22.934Z,8.50
2019-02-23T23:45:52.332Z,8.80
2019-02-23T23:48:22.135Z,8.27
2019-02-23T23:50:52.102Z,10.70
2019-02-23T23:53:21.777Z,8.60
2019-02-23T23:55:51.606Z,8.97
2019-02-23T23:58:21.150Z,9.67
